Averill, Minnesota
Current Conditions -  °F | °C
As of 1:11 PM on Friday 28 Nov 2014 (Local Time) from KJKJ Reporting Station
Unknown Precip Unknown Precip  
Wind Chill:   Ceiling: 3300
Heat Index: 18°   Visibility: 10mi
Dew Point: 12°   Wind: 7mph
Humidity: 79%   Direction: 110°ESE
Pressure: 29.84"   Gusts: NA
Location:  46.8905°N, 96.5417°W
Report Text: KJKJ 281911Z AUTO 11006KT 10SM UP SCT014 BKN033 M08/M11 A2984 RMK AO2
Loading
Personal Weather Stations






























Interactive Weather Map New forecast layout! Learn more

10-Day Weather Forecast

Advertisements
Track Severe Weather on mobile